createdAt,value
2023-10-07T00:01:05.673Z,2.90
2023-10-07T00:04:11.124Z,2.47
2023-10-07T00:07:35.163Z,2.40
2023-10-07T00:10:44.309Z,3.42
2023-10-07T00:13:49.599Z,2.38
2023-10-07T00:16:52.902Z,2.70
2023-10-07T00:19:56.397Z,2.97
2023-10-07T00:23:02.187Z,2.60
2023-10-07T00:26:09.501Z,3.22
2023-10-07T00:29:14.219Z,2.75
2023-10-07T00:32:17.705Z,3.97
2023-10-07T00:35:21.573Z,3.25
2023-10-07T00:38:38.689Z,3.40
2023-10-07T00:41:46.918Z,3.38
2023-10-07T00:44:53.572Z,2.70
2023-10-07T00:48:01.797Z,2.92
2023-10-07T00:51:05.808Z,3.15
2023-10-07T00:54:19.341Z,3.25
2023-10-07T00:57:30.547Z,3.70
2023-10-07T01:00:43.890Z,3.55
2023-10-07T01:03:49.950Z,3.20
2023-10-07T01:07:03.599Z,3.20
2023-10-07T01:10:14.485Z,2.97
2023-10-07T01:13:31.169Z,3.25
2023-10-07T01:16:42.629Z,3.13
2023-10-07T01:19:53.550Z,2.95
2023-10-07T01:23:05.391Z,3.00
2023-10-07T01:26:16.776Z,3.22
2023-10-07T01:29:22.104Z,3.10
2023-10-07T01:32:28.322Z,3.00
2023-10-07T01:35:39.790Z,3.67
2023-10-07T01:38:46.117Z,3.30
2023-10-07T01:41:50.474Z,2.38
2023-10-07T01:45:02.990Z,3.42
2023-10-07T01:48:08.729Z,2.33
2023-10-07T01:51:15.739Z,3.08
2023-10-07T01:54:21.922Z,2.75
2023-10-07T01:57:24.965Z,2.83
2023-10-07T02:00:43.859Z,2.85
2023-10-07T02:03:47.762Z,3.10
2023-10-07T02:06:53.330Z,3.50
2023-10-07T02:09:59.030Z,3.33
2023-10-07T02:13:02.095Z,2.88
2023-10-07T02:16:08.344Z,2.65
2023-10-07T02:19:15.889Z,3.25
2023-10-07T02:22:23.629Z,3.38
2023-10-07T02:25:30.471Z,3.22
2023-10-07T02:28:34.719Z,3.28
2023-10-07T02:31:44.669Z,2.97
2023-10-07T02:34:54.401Z,3.72
2023-10-07T02:37:58.579Z,3.85
2023-10-07T02:44:16.838Z,3.17
2023-10-07T02:47:20.461Z,2.65
2023-10-07T02:50:26.991Z,3.10
2023-10-07T02:53:36.506Z,3.20
2023-10-07T02:56:46.052Z,2.88
2023-10-07T02:59:52.524Z,3.88
2023-10-07T03:03:10.962Z,3.25
2023-10-07T03:06:18.618Z,3.20
2023-10-07T03:09:22.242Z,2.85
2023-10-07T03:12:29.744Z,3.70
2023-10-07T03:15:45.101Z,4.07
2023-10-07T03:18:57.477Z,3.08
2023-10-07T03:22:11.706Z,3.40
2023-10-07T03:25:19.122Z,3.70
2023-10-07T03:28:36.027Z,3.88
2023-10-07T03:31:48.805Z,3.03
2023-10-07T03:34:52.149Z,3.88
2023-10-07T03:37:57.674Z,3.88
2023-10-07T03:41:01.058Z,3.45
2023-10-07T03:44:06.104Z,3.50
2023-10-07T03:47:11.786Z,3.53
2023-10-07T03:50:36.101Z,3.72
2023-10-07T03:53:45.658Z,3.05
2023-10-07T03:57:30.068Z,3.60
2023-10-07T04:00:37.046Z,3.05
2023-10-07T04:03:41.740Z,3.33
2023-10-07T04:06:48.484Z,4.00
2023-10-07T04:09:52.106Z,4.05
2023-10-07T04:12:57.787Z,3.60
2023-10-07T04:16:03.089Z,3.67
2023-10-07T04:19:30.095Z,3.42
2023-10-07T04:22:34.580Z,4.75
2023-10-07T04:25:44.262Z,4.13
2023-10-07T04:28:50.464Z,3.00
2023-10-07T04:31:55.823Z,3.83
2023-10-07T04:35:17.693Z,4.15
2023-10-07T04:38:40.234Z,3.80
2023-10-07T04:41:44.370Z,3.95
2023-10-07T04:45:18.876Z,3.95
2023-10-07T04:48:43.081Z,3.25
2023-10-07T04:51:49.523Z,3.80
2023-10-07T04:54:53.904Z,4.35
2023-10-07T04:58:01.036Z,3.92
2023-10-07T05:04:26.372Z,3.13
2023-10-07T05:07:29.475Z,3.10
2023-10-07T05:10:43.918Z,3.83
2023-10-07T05:16:51.049Z,3.50
2023-10-07T05:19:57.542Z,3.90
2023-10-07T05:23:04.249Z,3.80
2023-10-07T05:26:10.452Z,3.70
2023-10-07T05:29:16.167Z,4.15
2023-10-07T05:32:20.189Z,3.42
2023-10-07T05:35:24.633Z,3.60
2023-10-07T05:38:27.878Z,3.15
2023-10-07T05:41:31.529Z,3.17
2023-10-07T05:44:36.209Z,3.35
2023-10-07T05:47:39.261Z,2.72
2023-10-07T05:50:43.818Z,3.33
2023-10-07T05:53:49.378Z,4.05
2023-10-07T05:56:54.320Z,3.40
2023-10-07T05:59:57.808Z,3.22
2023-10-07T06:03:04.360Z,3.60
2023-10-07T06:06:08.855Z,3.58
2023-10-07T06:09:37.878Z,3.58
2023-10-07T06:12:41.598Z,3.05
2023-10-07T06:15:44.884Z,3.15
2023-10-07T06:18:49.078Z,3.77
2023-10-07T06:21:52.939Z,2.83
2023-10-07T06:25:02.320Z,2.80
2023-10-07T06:28:06.658Z,3.42
2023-10-07T06:31:13.419Z,3.45
2023-10-07T06:34:16.734Z,3.88
2023-10-07T06:37:29.308Z,2.83
2023-10-07T06:40:36.280Z,3.35
2023-10-07T06:43:42.948Z,4.05
2023-10-07T06:46:47.589Z,2.55
2023-10-07T06:49:53.370Z,3.20
2023-10-07T06:52:57.350Z,2.95
2023-10-07T06:56:02.903Z,2.55
2023-10-07T06:59:08.040Z,3.47
2023-10-07T07:02:12.976Z,3.10
2023-10-07T07:05:17.761Z,3.38
2023-10-07T07:08:24.239Z,3.10
2023-10-07T07:11:30.654Z,3.83
2023-10-07T07:14:34.933Z,3.20
2023-10-07T07:17:38.043Z,2.47
2023-10-07T07:21:01.843Z,2.35
2023-10-07T07:24:05.814Z,3.10
2023-10-07T07:27:10.481Z,2.80
2023-10-07T07:30:20.951Z,3.00
2023-10-07T07:33:29.826Z,3.40
2023-10-07T07:36:39.312Z,3.08
2023-10-07T07:39:42.555Z,3.05
2023-10-07T07:42:56.240Z,3.80
2023-10-07T07:46:27.456Z,2.80
2023-10-07T07:49:33.228Z,2.80
2023-10-07T07:52:36.440Z,3.05
2023-10-07T07:55:44.878Z,2.80
2023-10-07T07:58:49.904Z,3.00
2023-10-07T08:01:55.459Z,3.30
2023-10-07T08:05:04.245Z,3.10
2023-10-07T08:08:19.396Z,3.35
2023-10-07T08:11:22.664Z,3.15
2023-10-07T08:14:28.483Z,2.63
2023-10-07T08:17:31.686Z,2.67
2023-10-07T08:20:38.547Z,2.87
2023-10-07T08:23:42.812Z,3.15
2023-10-07T08:26:49.333Z,2.70
2023-10-07T08:29:55.797Z,2.55
2023-10-07T08:32:58.865Z,2.15
2023-10-07T08:36:08.220Z,2.90
2023-10-07T08:39:12.379Z,2.42
2023-10-07T08:45:32.084Z,3.08
2023-10-07T08:48:39.743Z,2.38
2023-10-07T08:51:45.726Z,2.92
2023-10-07T08:54:49.108Z,3.25
2023-10-07T08:57:53.210Z,3.07
2023-10-07T09:04:30.811Z,3.00
2023-10-07T09:07:34.315Z,2.60
2023-10-07T09:10:37.994Z,3.47
2023-10-07T09:13:42.019Z,2.90
2023-10-07T09:16:47.640Z,3.05
2023-10-07T09:19:54.580Z,3.20
2023-10-07T09:23:02.110Z,2.38
2023-10-07T09:26:22.583Z,3.20
2023-10-07T09:29:26.939Z,2.78
2023-10-07T09:32:33.545Z,3.00
2023-10-07T09:35:43.831Z,3.05
2023-10-07T09:38:49.579Z,3.42
2023-10-07T09:42:04.827Z,2.95
2023-10-07T09:45:18.278Z,2.60
2023-10-07T09:48:24.869Z,3.07
2023-10-07T09:51:30.745Z,2.50
2023-10-07T09:54:48.838Z,3.13
2023-10-07T09:58:02.304Z,2.53
2023-10-07T10:01:26.084Z,3.13
2023-10-07T10:04:55.514Z,2.53
2023-10-07T10:08:30.553Z,3.15
2023-10-07T10:15:11.330Z,3.08
2023-10-07T10:18:36.547Z,2.97
2023-10-07T10:21:39.721Z,3.13
2023-10-07T10:24:45.808Z,2.33
2023-10-07T10:27:49.094Z,3.50
2023-10-07T10:30:54.917Z,2.70
2023-10-07T10:34:00.089Z,3.00
2023-10-07T10:37:07.166Z,3.38
2023-10-07T10:40:18.590Z,2.58
2023-10-07T10:43:25.457Z,2.70
2023-10-07T10:46:30.112Z,2.60
2023-10-07T10:49:33.952Z,2.65
2023-10-07T10:52:37.605Z,2.47
2023-10-07T10:55:43.915Z,2.25
2023-10-07T10:58:54.951Z,2.83
2023-10-07T11:01:59.514Z,2.90
2023-10-07T11:05:03.709Z,1.95
2023-10-07T11:08:09.172Z,2.28
2023-10-07T11:11:13.991Z,2.60
2023-10-07T11:14:21.960Z,2.60
2023-10-07T11:17:25.126Z,2.55
2023-10-07T11:20:41.793Z,2.50
2023-10-07T11:23:48.337Z,2.80
2023-10-07T11:26:53.607Z,2.65
2023-10-07T11:30:03.075Z,3.33
2023-10-07T11:33:11.669Z,2.60
2023-10-07T11:36:14.955Z,2.58
2023-10-07T11:39:18.091Z,2.25
2023-10-07T11:42:23.826Z,2.75
2023-10-07T11:45:27.955Z,2.95
2023-10-07T11:48:31.894Z,2.55
2023-10-07T11:51:34.995Z,2.08
2023-10-07T11:54:39.799Z,2.05
2023-10-07T11:57:44.278Z,2.00
2023-10-07T12:00:48.360Z,2.13
2023-10-07T12:06:55.313Z,3.47
2023-10-07T12:09:58.322Z,2.22
2023-10-07T12:13:04.548Z,2.28
2023-10-07T12:16:08.088Z,2.55
2023-10-07T12:19:35.775Z,1.77
2023-10-07T12:22:40.113Z,2.72
2023-10-07T12:25:43.381Z,2.05
2023-10-07T12:28:46.629Z,2.33
2023-10-07T12:31:49.889Z,2.63
2023-10-07T12:34:54.571Z,2.30
2023-10-07T12:37:59.266Z,2.00
2023-10-07T12:41:02.574Z,2.53
2023-10-07T12:44:10.012Z,1.97
2023-10-07T12:47:13.463Z,1.58
2023-10-07T12:50:25.274Z,2.15
2023-10-07T12:53:28.761Z,2.40
2023-10-07T12:56:32.502Z,2.83
2023-10-07T12:59:36.948Z,1.85
2023-10-07T13:02:40.679Z,1.77
2023-10-07T13:05:47.224Z,1.90
2023-10-07T13:08:50.564Z,2.30
2023-10-07T13:11:53.734Z,2.25
2023-10-07T13:14:57.073Z,1.77
2023-10-07T13:18:00.945Z,1.95
2023-10-07T13:21:08.843Z,2.20
2023-10-07T13:24:12.758Z,2.03
2023-10-07T13:30:25.580Z,1.98
2023-10-07T13:33:32.322Z,1.48
2023-10-07T13:36:40.155Z,1.45
2023-10-07T13:40:00.133Z,1.52
2023-10-07T13:43:05.989Z,0.75
2023-10-07T13:46:13.358Z,0.38
2023-10-07T13:49:17.617Z,0.38
2023-10-07T13:52:23.077Z,0.30
2023-10-07T13:55:56.506Z,0.30
2023-10-07T13:58:59.885Z,0.30
2023-10-07T14:02:03.321Z,0.28
2023-10-07T14:05:07.916Z,0.20
2023-10-07T14:08:17.229Z,0.30
2023-10-07T14:11:23.328Z,0.17
2023-10-07T14:14:27.211Z,0.20
2023-10-07T14:17:31.283Z,0.32
2023-10-07T14:20:34.701Z,0.30
2023-10-07T14:23:39.573Z,0.30
2023-10-07T14:26:44.803Z,0.40
2023-10-07T14:29:48.681Z,0.13
2023-10-07T14:32:52.399Z,0.20
2023-10-07T14:35:55.863Z,0.30
2023-10-07T14:38:59.069Z,0.33
2023-10-07T14:42:08.909Z,0.57
2023-10-07T14:45:13.199Z,0.30
2023-10-07T14:48:17.158Z,0.30
2023-10-07T14:51:20.768Z,0.20
2023-10-07T14:54:24.065Z,0.40
2023-10-07T14:57:29.552Z,0.60
2023-10-07T15:00:33.571Z,0.30
2023-10-07T15:03:37.300Z,0.30
2023-10-07T15:06:40.879Z,0.40
2023-10-07T15:09:44.782Z,0.43
2023-10-07T15:12:49.652Z,0.30
2023-10-07T15:15:53.228Z,0.55
2023-10-07T15:18:56.302Z,0.30
2023-10-07T15:22:00.829Z,0.40
2023-10-07T15:25:04.848Z,0.30
2023-10-07T15:28:11.913Z,0.30
2023-10-07T15:31:23.150Z,0.45
2023-10-07T15:34:26.322Z,0.30
2023-10-07T15:37:29.359Z,0.40
2023-10-07T15:40:39.829Z,0.40
2023-10-07T15:43:44.390Z,0.40
2023-10-07T15:46:48.650Z,0.50
2023-10-07T15:49:53.225Z,0.50
2023-10-07T15:52:56.286Z,0.40
2023-10-07T15:56:02.111Z,0.50
2023-10-07T15:59:07.159Z,1.20
2023-10-07T16:02:11.133Z,0.93
2023-10-07T16:05:15.188Z,0.40
2023-10-07T16:08:18.465Z,0.40
2023-10-07T16:11:23.295Z,0.77
2023-10-07T16:14:28.229Z,0.85
2023-10-07T16:17:33.172Z,0.68
2023-10-07T16:20:43.668Z,0.50
2023-10-07T16:23:48.382Z,0.65
2023-10-07T16:26:51.587Z,0.60
2023-10-07T16:29:56.152Z,0.70
2023-10-07T16:32:59.359Z,0.50
2023-10-07T16:36:05.561Z,0.70
2023-10-07T16:39:10.166Z,0.40
2023-10-07T16:42:13.630Z,0.60
2023-10-07T16:45:18.125Z,0.60
2023-10-07T16:48:21.269Z,0.70
2023-10-07T16:51:25.378Z,0.70
2023-10-07T16:57:31.625Z,0.57
2023-10-07T17:00:44.096Z,0.63
2023-10-07T17:04:03.391Z,0.90
2023-10-07T17:07:06.666Z,0.65
2023-10-07T17:10:11.661Z,0.73
2023-10-07T17:13:15.759Z,0.50
2023-10-07T17:16:19.778Z,0.70
2023-10-07T17:19:24.806Z,0.30
2023-10-07T17:22:27.847Z,0.68
2023-10-07T17:25:31.340Z,0.55
2023-10-07T17:28:34.413Z,1.10
2023-10-07T17:31:37.550Z,0.75
2023-10-07T17:34:42.039Z,0.40
2023-10-07T17:37:45.569Z,0.65
2023-10-07T17:40:48.864Z,0.80
2023-10-07T17:43:52.060Z,0.70
2023-10-07T17:46:56.789Z,0.90
2023-10-07T17:50:01.542Z,0.80
2023-10-07T17:53:07.202Z,0.75
2023-10-07T17:56:11.458Z,0.70
2023-10-07T18:02:18.582Z,1.08
2023-10-07T18:05:25.130Z,1.20
2023-10-07T18:08:28.301Z,0.88
2023-10-07T18:11:31.778Z,0.57
2023-10-07T18:14:35.617Z,0.60
2023-10-07T18:17:39.347Z,0.75
2023-10-07T18:20:45.119Z,0.98
2023-10-07T18:23:48.609Z,1.25
2023-10-07T18:26:51.684Z,1.00
2023-10-07T18:29:55.146Z,1.17
2023-10-07T18:33:00.917Z,0.80
2023-10-07T18:36:08.718Z,0.65
2023-10-07T18:39:15.131Z,0.80
2023-10-07T18:42:18.432Z,0.70
2023-10-07T18:45:21.750Z,0.60
2023-10-07T18:48:25.136Z,0.60
2023-10-07T18:51:31.398Z,0.50
2023-10-07T18:54:36.664Z,0.60
2023-10-07T18:57:40.643Z,0.63
2023-10-07T19:00:43.958Z,0.93
2023-10-07T19:03:47.574Z,1.30
2023-10-07T19:06:52.063Z,0.82
2023-10-07T19:09:55.358Z,1.33
2023-10-07T19:12:59.857Z,1.03
2023-10-07T19:16:03.879Z,1.00
2023-10-07T19:19:08.899Z,0.75
2023-10-07T19:22:13.878Z,0.57
2023-10-07T19:25:16.973Z,0.50
2023-10-07T19:28:20.050Z,0.63
2023-10-07T19:31:23.494Z,1.02
2023-10-07T19:34:26.823Z,0.43
2023-10-07T19:37:31.415Z,0.60
2023-10-07T19:40:34.493Z,0.88
2023-10-07T19:43:37.881Z,0.88
2023-10-07T19:46:40.908Z,0.90
2023-10-07T19:49:44.171Z,0.90
2023-10-07T19:52:49.084Z,0.95
2023-10-07T19:56:15.678Z,1.55
2023-10-07T19:59:18.918Z,1.20
2023-10-07T20:02:22.509Z,1.27
2023-10-07T20:05:25.800Z,1.17
2023-10-07T20:08:29.205Z,1.05
2023-10-07T20:11:33.929Z,1.30
2023-10-07T20:14:37.104Z,0.93
2023-10-07T20:17:41.908Z,0.80
2023-10-07T20:20:46.172Z,0.95
2023-10-07T20:26:54.874Z,0.80
2023-10-07T20:29:58.468Z,0.55
2023-10-07T20:33:01.502Z,0.70
2023-10-07T20:36:11.865Z,0.55
2023-10-07T20:39:16.875Z,0.50
2023-10-07T20:42:22.321Z,0.50
2023-10-07T20:45:25.396Z,0.60
2023-10-07T20:48:29.513Z,0.70
2023-10-07T20:51:32.954Z,0.80
2023-10-07T20:54:36.548Z,0.90
2023-10-07T20:57:41.903Z,1.10
2023-10-07T21:00:46.721Z,1.00
2023-10-07T21:03:51.767Z,1.30
2023-10-07T21:06:55.282Z,1.02
2023-10-07T21:09:58.647Z,0.97
2023-10-07T21:13:03.222Z,0.70
2023-10-07T21:16:07.456Z,0.80
2023-10-07T21:19:11.022Z,0.73
2023-10-07T21:22:15.094Z,1.10
2023-10-07T21:25:18.516Z,0.70
2023-10-07T21:28:23.101Z,0.50
2023-10-07T21:31:30.183Z,0.93
2023-10-07T21:34:33.861Z,0.65
2023-10-07T21:37:37.208Z,0.80
2023-10-07T21:40:43.990Z,0.95
2023-10-07T21:43:48.655Z,0.55
2023-10-07T21:46:53.994Z,0.93
2023-10-07T21:49:57.058Z,1.05
2023-10-07T21:53:02.417Z,0.93
2023-10-07T21:56:07.535Z,0.70
2023-10-07T21:59:13.128Z,0.77
2023-10-07T22:02:17.261Z,0.88
2023-10-07T22:05:20.892Z,0.82
2023-10-07T22:08:24.083Z,0.90
2023-10-07T22:11:29.824Z,0.80
2023-10-07T22:14:34.658Z,0.88
2023-10-07T22:17:38.217Z,0.80
2023-10-07T22:20:43.697Z,0.93
2023-10-07T22:23:47.091Z,0.75
2023-10-07T22:26:50.280Z,0.80
2023-10-07T22:29:55.045Z,0.63
2023-10-07T22:33:00.761Z,0.90
2023-10-07T22:36:13.179Z,0.80
2023-10-07T22:39:30.608Z,0.60
2023-10-07T22:42:35.715Z,0.80
2023-10-07T22:46:05.072Z,0.60
2023-10-07T22:49:08.847Z,0.60
2023-10-07T22:52:12.493Z,0.87
2023-10-07T22:55:24.610Z,0.95
2023-10-07T22:58:29.305Z,0.80
2023-10-07T23:01:44.310Z,0.90
2023-10-07T23:04:48.811Z,0.60
2023-10-07T23:07:54.135Z,0.80
2023-10-07T23:10:59.414Z,0.68
2023-10-07T23:14:23.993Z,0.75
2023-10-07T23:17:32.188Z,0.47
2023-10-07T23:20:47.475Z,0.60
2023-10-07T23:23:54.268Z,0.65
2023-10-07T23:26:58.252Z,0.80
2023-10-07T23:33:14.914Z,1.30
2023-10-07T23:36:19.571Z,1.08
2023-10-07T23:39:23.756Z,1.27
2023-10-07T23:45:42.234Z,1.48
2023-10-07T23:48:47.729Z,1.50
2023-10-07T23:51:51.399Z,1.80
2023-10-07T23:54:58.317Z,1.08
2023-10-07T23:58:07.975Z,1.50
